createdAt,value
2023-03-15T00:00:23.904Z,100951.56
2023-03-15T00:02:51.008Z,100952.66
2023-03-15T00:05:18.068Z,100956.25
2023-03-15T00:07:44.986Z,100957.91
2023-03-15T00:10:12.004Z,100960.78
2023-03-15T00:12:39.082Z,100970.56
2023-03-15T00:15:06.463Z,100982.94
2023-03-15T00:17:34.980Z,100983.22
2023-03-15T00:20:02.288Z,100978.50
2023-03-15T00:22:29.424Z,100989.09
2023-03-15T00:24:56.793Z,100993.50
2023-03-15T00:27:23.860Z,100991.72
2023-03-15T00:29:50.874Z,100992.22
2023-03-15T00:32:17.836Z,101000.09
2023-03-15T00:34:49.298Z,100999.25
2023-03-15T00:37:17.252Z,101009.03
2023-03-15T00:39:45.739Z,101001.13
2023-03-15T00:42:16.155Z,101012.69
2023-03-15T00:44:43.825Z,101013.63
2023-03-15T00:47:12.587Z,101018.06
2023-03-15T00:49:39.738Z,101026.03
2023-03-15T00:52:07.102Z,101028.53
2023-03-15T00:54:34.376Z,101027.56
2023-03-15T00:57:01.848Z,101027.69
2023-03-15T00:59:29.417Z,101036.38
2023-03-15T01:01:56.408Z,101026.03
2023-03-15T01:04:23.339Z,101028.31
2023-03-15T01:06:50.314Z,101025.25
2023-03-15T01:09:17.992Z,101032.09
2023-03-15T01:11:44.846Z,101035.91
2023-03-15T01:14:11.825Z,101042.00
2023-03-15T01:16:38.773Z,101044.47
2023-03-15T01:19:05.959Z,101034.94
2023-03-15T01:21:32.871Z,101039.22
2023-03-15T01:23:59.804Z,101034.94
2023-03-15T01:26:26.750Z,101042.94
2023-03-15T01:28:53.682Z,101036.16
2023-03-15T01:31:23.139Z,101039.88
2023-03-15T01:33:50.109Z,101037.38
2023-03-15T01:36:17.252Z,101042.47
2023-03-15T01:38:44.188Z,101049.50
2023-03-15T01:41:12.871Z,101055.69
2023-03-15T01:43:40.062Z,101054.84
2023-03-15T01:46:09.951Z,101059.50
2023-03-15T01:48:39.962Z,101064.16
2023-03-15T01:51:09.958Z,101059.88
2023-03-15T01:53:37.719Z,101060.00
2023-03-15T01:56:05.795Z,101073.91
2023-03-15T01:58:36.018Z,101077.47
2023-03-15T02:01:03.969Z,101078.31
2023-03-15T02:03:36.181Z,101090.66
2023-03-15T02:06:05.497Z,101084.88
2023-03-15T02:08:36.429Z,101088.56
2023-03-15T02:11:04.408Z,101093.09
2023-03-15T02:13:33.274Z,101094.19
2023-03-15T02:16:00.380Z,101089.63
2023-03-15T02:18:27.409Z,101089.53
2023-03-15T02:21:01.111Z,101093.91
2023-03-15T02:23:28.700Z,101085.63
2023-03-15T02:26:03.092Z,101085.03
2023-03-15T02:28:30.876Z,101082.28
2023-03-15T02:30:58.293Z,101087.66
2023-03-15T02:33:28.283Z,101097.66
2023-03-15T02:35:55.389Z,101096.19
2023-03-15T02:38:23.756Z,101094.78
2023-03-15T02:40:53.328Z,101099.19
2023-03-15T02:43:23.532Z,101107.28
2023-03-15T02:45:50.891Z,101109.06
2023-03-15T02:48:18.612Z,101105.03
2023-03-15T02:50:45.577Z,101108.00
2023-03-15T02:53:12.703Z,101110.84
2023-03-15T02:55:39.686Z,101118.69
2023-03-15T02:58:06.627Z,101117.28
2023-03-15T03:00:33.721Z,101119.28
2023-03-15T03:03:00.840Z,101117.88
2023-03-15T03:05:27.995Z,101114.53
2023-03-15T03:07:55.431Z,101119.78
2023-03-15T03:10:22.878Z,101124.75
2023-03-15T03:12:53.803Z,101124.63
2023-03-15T03:15:21.097Z,101111.69
2023-03-15T03:17:48.091Z,101108.38
2023-03-15T03:20:15.344Z,101103.50
2023-03-15T03:22:42.522Z,101118.56
2023-03-15T03:25:10.963Z,101108.13
2023-03-15T03:27:37.988Z,101115.13
2023-03-15T03:30:05.701Z,101119.75
2023-03-15T03:32:32.549Z,101125.22
2023-03-15T03:34:59.448Z,101121.19
2023-03-15T03:37:26.481Z,101123.09
2023-03-15T03:39:53.381Z,101133.53
2023-03-15T03:42:20.530Z,101135.56
2023-03-15T03:44:47.421Z,101142.78
2023-03-15T03:47:14.348Z,101151.81
2023-03-15T03:49:41.297Z,101154.66
2023-03-15T03:52:09.083Z,101165.44
2023-03-15T03:54:35.943Z,101177.31
2023-03-15T03:57:02.750Z,101179.59
2023-03-15T03:59:29.716Z,101177.72
2023-03-15T04:01:56.583Z,101176.03
2023-03-15T04:04:23.431Z,101172.34
2023-03-15T04:06:51.151Z,101164.41
2023-03-15T04:09:18.043Z,101166.28
2023-03-15T04:11:45.029Z,101164.84
2023-03-15T04:14:12.792Z,101167.00
2023-03-15T04:16:39.875Z,101170.44
2023-03-15T04:19:07.769Z,101172.09
2023-03-15T04:21:34.827Z,101171.03
2023-03-15T04:24:02.195Z,101183.03
2023-03-15T04:26:29.212Z,101173.28
2023-03-15T04:28:56.885Z,101169.03
2023-03-15T04:31:27.406Z,101170.81
2023-03-15T04:33:54.990Z,101163.91
2023-03-15T04:36:22.272Z,101169.97
2023-03-15T04:38:49.503Z,101159.41
2023-03-15T04:41:17.817Z,101163.56
2023-03-15T04:43:44.755Z,101162.84
2023-03-15T04:46:11.804Z,101166.63
2023-03-15T04:48:38.819Z,101165.22
2023-03-15T04:51:05.990Z,101156.78
2023-03-15T04:53:33.963Z,101168.91
2023-03-15T04:56:03.039Z,101169.13
2023-03-15T04:58:31.542Z,101178.72
2023-03-15T05:00:58.425Z,101183.84
2023-03-15T05:03:25.450Z,101181.13
2023-03-15T05:05:52.374Z,101179.56
2023-03-15T05:08:19.260Z,101178.84
2023-03-15T05:10:46.211Z,101170.41
2023-03-15T05:13:13.092Z,101162.69
2023-03-15T05:15:40.179Z,101169.91
2023-03-15T05:18:07.164Z,101168.56
2023-03-15T05:20:34.139Z,101178.06
2023-03-15T05:23:01.484Z,101181.44
2023-03-15T05:25:28.400Z,101171.00
2023-03-15T05:27:56.061Z,101173.78
2023-03-15T05:30:23.012Z,101182.38
2023-03-15T05:32:49.905Z,101195.72
2023-03-15T05:35:16.877Z,101197.84
2023-03-15T05:37:43.784Z,101189.91
2023-03-15T05:40:11.821Z,101192.53
2023-03-15T05:42:38.770Z,101195.84
2023-03-15T05:45:06.185Z,101201.91
2023-03-15T05:47:34.065Z,101203.78
2023-03-15T05:50:01.062Z,101202.84
2023-03-15T05:52:28.144Z,101208.69
2023-03-15T05:54:55.049Z,101207.00
2023-03-15T05:57:21.922Z,101209.84
2023-03-15T05:59:48.817Z,101215.88
2023-03-15T06:02:15.760Z,101217.56
2023-03-15T06:04:42.939Z,101217.56
2023-03-15T06:07:09.944Z,101215.69
2023-03-15T06:09:36.928Z,101221.84
2023-03-15T06:12:04.069Z,101221.75
2023-03-15T06:14:30.936Z,101228.59
2023-03-15T06:16:58.051Z,101225.88
2023-03-15T06:19:24.996Z,101230.38
2023-03-15T06:21:52.148Z,101237.72
2023-03-15T06:24:19.324Z,101245.69
2023-03-15T06:26:46.247Z,101245.69
2023-03-15T06:29:13.253Z,101245.69
2023-03-15T06:31:40.195Z,101255.38
2023-03-15T06:34:07.202Z,101261.34
2023-03-15T06:36:34.246Z,101253.50
2023-03-15T06:39:03.243Z,101257.06
2023-03-15T06:41:30.450Z,101262.69
2023-03-15T06:43:57.540Z,101265.69
2023-03-15T06:46:24.713Z,101261.44
2023-03-15T06:48:52.298Z,101257.00
2023-03-15T06:51:19.457Z,101269.75
2023-03-15T06:53:46.395Z,101270.34
2023-03-15T06:56:13.456Z,101272.63
2023-03-15T06:58:40.754Z,101268.34
2023-03-15T07:01:07.851Z,101266.34
2023-03-15T07:03:34.962Z,101270.28
2023-03-15T07:06:02.239Z,101270.66
2023-03-15T07:08:29.444Z,101279.94
2023-03-15T07:10:56.701Z,101282.34
2023-03-15T07:13:23.788Z,101291.50
2023-03-15T07:15:53.393Z,101290.44
2023-03-15T07:18:20.662Z,101291.03
2023-03-15T07:20:48.097Z,101290.91
2023-03-15T07:23:15.405Z,101292.50
2023-03-15T07:25:54.387Z,101292.25
2023-03-15T07:28:22.699Z,101293.22
2023-03-15T07:30:52.728Z,101308.00
2023-03-15T07:33:23.158Z,101311.38
2023-03-15T07:35:51.436Z,101310.19
2023-03-15T07:38:18.672Z,101313.38
2023-03-15T07:40:45.957Z,101313.88
2023-03-15T07:43:13.203Z,101314.47
2023-03-15T07:45:40.917Z,101307.53
2023-03-15T07:48:08.128Z,101311.44
2023-03-15T07:50:35.471Z,101310.41
2023-03-15T07:53:03.723Z,101311.28
2023-03-15T07:55:31.810Z,101311.97
2023-03-15T07:58:01.153Z,101302.06
2023-03-15T08:00:28.429Z,101306.94
2023-03-15T08:02:55.890Z,101307.66
2023-03-15T08:05:23.131Z,101298.16
2023-03-15T08:07:50.394Z,101290.31
2023-03-15T08:10:17.937Z,101288.97
2023-03-15T08:12:45.085Z,101286.84
2023-03-15T08:15:13.359Z,101288.19
2023-03-15T08:17:41.633Z,101294.38
2023-03-15T08:20:11.994Z,101289.53
2023-03-15T08:22:39.330Z,101289.84
2023-03-15T08:25:07.061Z,101297.34
2023-03-15T08:27:34.479Z,101298.28
2023-03-15T08:30:01.838Z,101296.50
2023-03-15T08:32:29.411Z,101306.53
2023-03-15T08:34:57.683Z,101304.34
2023-03-15T08:37:24.925Z,101311.06
2023-03-15T08:40:01.353Z,101310.22
2023-03-15T08:42:28.986Z,101315.38
2023-03-15T08:45:00.072Z,101309.91
2023-03-15T08:47:27.213Z,101310.06
2023-03-15T08:49:54.351Z,101315.16
2023-03-15T08:52:22.011Z,101309.91
2023-03-15T08:54:49.607Z,101312.28
2023-03-15T08:57:16.743Z,101307.06
2023-03-15T08:59:44.027Z,101311.19
2023-03-15T09:02:14.025Z,101312.84
2023-03-15T09:04:41.112Z,101309.41
2023-03-15T09:07:08.416Z,101310.50
2023-03-15T09:09:42.036Z,101305.50
2023-03-15T09:12:09.277Z,101308.13
2023-03-15T09:14:36.574Z,101305.38
2023-03-15T09:17:03.990Z,101301.41
2023-03-15T09:19:32.898Z,101305.44
2023-03-15T09:22:15.910Z,101298.50
2023-03-15T09:24:44.516Z,101298.38
2023-03-15T09:27:26.212Z,101307.78
2023-03-15T09:29:53.300Z,101311.13
2023-03-15T09:32:21.493Z,101310.59
2023-03-15T09:34:48.793Z,101311.28
2023-03-15T09:37:15.831Z,101306.75
2023-03-15T09:39:43.241Z,101309.69
2023-03-15T09:42:13.437Z,101309.41
2023-03-15T09:44:46.477Z,101310.00
2023-03-15T09:47:15.600Z,101316.25
2023-03-15T09:49:44.435Z,101321.66
2023-03-15T09:52:18.529Z,101317.53
2023-03-15T09:54:52.663Z,101320.72
2023-03-15T09:57:26.592Z,101320.59
2023-03-15T09:59:55.331Z,101326.41
2023-03-15T10:02:24.954Z,101311.06
2023-03-15T10:04:57.152Z,101329.78
2023-03-15T10:07:25.336Z,101314.69
2023-03-15T10:09:52.848Z,101321.06
2023-03-15T10:12:27.239Z,101322.63
2023-03-15T10:14:56.028Z,101325.38
2023-03-15T10:17:30.034Z,101324.56
2023-03-15T10:20:01.730Z,101319.31
2023-03-15T10:22:36.196Z,101314.06
2023-03-15T10:25:10.252Z,101317.28
2023-03-15T10:27:40.974Z,101314.81
2023-03-15T10:30:23.936Z,101315.09
2023-03-15T10:33:21.371Z,101317.41
2023-03-15T10:39:06.668Z,101315.91
2023-03-15T10:41:37.587Z,101314.94
2023-03-15T10:44:06.291Z,101322.25
2023-03-15T10:46:33.978Z,101328.63
2023-03-15T10:49:12.353Z,101335.13
2023-03-15T10:51:41.734Z,101329.44
2023-03-15T10:54:13.004Z,101330.97
2023-03-15T10:56:43.020Z,101329.84
2023-03-15T10:59:19.145Z,101336.78
2023-03-15T11:01:48.832Z,101326.66
2023-03-15T11:04:17.134Z,101331.63
2023-03-15T11:06:46.298Z,101325.94
2023-03-15T11:09:15.396Z,101325.81
2023-03-15T11:11:45.307Z,101323.56
2023-03-15T11:14:12.824Z,101324.13
2023-03-15T11:16:40.384Z,101323.16
2023-03-15T11:19:15.536Z,101327.84
2023-03-15T11:21:42.834Z,101313.72
2023-03-15T11:24:19.791Z,101316.03
2023-03-15T11:26:52.008Z,101315.78
2023-03-15T11:29:23.380Z,101318.81
2023-03-15T11:31:51.571Z,101307.84
2023-03-15T11:34:21.868Z,101316.84
2023-03-15T11:37:05.272Z,101312.41
2023-03-15T11:39:40.043Z,101319.22
2023-03-15T11:42:11.242Z,101311.31
2023-03-15T11:44:40.883Z,101321.25
2023-03-15T11:47:13.625Z,101322.91
2023-03-15T11:49:44.072Z,101316.97
2023-03-15T11:52:14.019Z,101315.97
2023-03-15T11:54:41.215Z,101312.09
2023-03-15T11:57:28.245Z,101301.66
2023-03-15T11:59:55.952Z,101294.28
2023-03-15T12:02:23.428Z,101304.28
2023-03-15T12:04:51.773Z,101303.59
2023-03-15T12:07:19.148Z,101311.22
2023-03-15T12:09:48.402Z,101302.88
2023-03-15T12:12:18.412Z,101298.97
2023-03-15T12:14:47.987Z,101308.22
2023-03-15T12:17:18.252Z,101296.41
2023-03-15T12:19:45.377Z,101294.59
2023-03-15T12:22:16.057Z,101283.94
2023-03-15T12:24:44.990Z,101277.53
2023-03-15T12:27:15.997Z,101273.78
2023-03-15T12:29:45.889Z,101267.66
2023-03-15T12:32:15.146Z,101262.13
2023-03-15T12:34:45.446Z,101256.69
2023-03-15T12:37:16.010Z,101255.00
2023-03-15T12:39:46.183Z,101257.38
2023-03-15T12:42:14.531Z,101264.31
2023-03-15T12:44:43.215Z,101257.06
2023-03-15T12:47:13.270Z,101256.22
2023-03-15T12:49:43.409Z,101259.16
2023-03-15T12:52:18.503Z,101255.56
2023-03-15T12:54:52.557Z,101247.34
2023-03-15T12:57:22.322Z,101242.25
2023-03-15T12:59:50.787Z,101240.28
2023-03-15T13:02:20.325Z,101237.38
2023-03-15T13:04:50.345Z,101238.31
2023-03-15T13:07:24.091Z,101233.75
2023-03-15T13:09:52.401Z,101241.19
2023-03-15T13:12:29.588Z,101237.91
2023-03-15T13:15:00.469Z,101234.13
2023-03-15T13:17:36.017Z,101233.28
2023-03-15T13:20:14.044Z,101233.47
2023-03-15T13:22:55.495Z,101234.94
2023-03-15T13:25:23.941Z,101240.22
2023-03-15T13:27:54.168Z,101242.19
2023-03-15T13:30:21.992Z,101239.72
2023-03-15T13:32:49.309Z,101234.47
2023-03-15T13:35:24.792Z,101232.13
2023-03-15T13:38:01.669Z,101226.72
2023-03-15T13:40:28.984Z,101220.31
2023-03-15T13:43:00.225Z,101218.81
2023-03-15T13:45:27.535Z,101215.09
2023-03-15T13:47:55.736Z,101214.56
2023-03-15T13:50:23.545Z,101200.56
2023-03-15T13:52:51.163Z,101203.38
2023-03-15T13:55:21.613Z,101192.53
2023-03-15T13:58:14.866Z,101189.88
2023-03-15T14:00:42.190Z,101183.94
2023-03-15T14:03:15.798Z,101178.28
2023-03-15T14:05:44.865Z,101175.66
2023-03-15T14:08:23.172Z,101167.59
2023-03-15T14:10:53.662Z,101169.41
2023-03-15T14:13:25.835Z,101170.09
2023-03-15T14:15:57.130Z,101165.09
2023-03-15T14:18:25.637Z,101164.13
2023-03-15T14:20:55.304Z,101164.97
2023-03-15T14:23:23.799Z,101162.56
2023-03-15T14:25:53.097Z,101152.22
2023-03-15T14:28:21.390Z,101163.16
2023-03-15T14:30:51.515Z,101153.59
2023-03-15T14:33:21.929Z,101154.25
2023-03-15T14:35:49.172Z,101148.31
2023-03-15T14:38:22.578Z,101150.97
2023-03-15T14:40:50.737Z,101151.09
2023-03-15T14:43:19.050Z,101147.50
2023-03-15T14:45:47.737Z,101152.06
2023-03-15T14:48:28.503Z,101134.31
2023-03-15T14:50:56.430Z,101138.53
2023-03-15T14:53:25.420Z,101132.75
2023-03-15T14:55:52.593Z,101135.06
2023-03-15T14:58:21.152Z,101132.28
2023-03-15T15:00:50.087Z,101138.00
2023-03-15T15:03:24.550Z,101138.16
2023-03-15T15:05:52.093Z,101132.22
2023-03-15T15:08:22.618Z,101134.03
2023-03-15T15:10:51.095Z,101122.28
2023-03-15T15:13:24.832Z,101127.19
2023-03-15T15:15:56.217Z,101128.28
2023-03-15T15:18:39.483Z,101119.72
2023-03-15T15:21:10.744Z,101117.94
2023-03-15T15:23:54.946Z,101110.53
2023-03-15T15:26:27.196Z,101115.50
2023-03-15T15:28:54.862Z,101104.44
2023-03-15T15:31:23.187Z,101103.47
2023-03-15T15:33:50.734Z,101096.53
2023-03-15T15:36:22.976Z,101094.03
2023-03-15T15:38:50.225Z,101100.28
2023-03-15T15:41:20.370Z,101092.25
2023-03-15T15:43:47.865Z,101093.91
2023-03-15T15:46:15.786Z,101102.50
2023-03-15T15:48:43.367Z,101089.91
2023-03-15T15:51:16.198Z,101093.66
2023-03-15T15:53:43.536Z,101095.47
2023-03-15T15:56:13.299Z,101085.75
2023-03-15T15:58:41.628Z,101083.13
2023-03-15T16:02:00.013Z,101089.38
2023-03-15T16:04:29.338Z,101082.75
2023-03-15T16:06:59.495Z,101082.94
2023-03-15T16:09:28.757Z,101087.19
2023-03-15T16:11:56.366Z,101091.50
2023-03-15T16:14:28.191Z,101079.38
2023-03-15T16:17:00.602Z,101081.16
2023-03-15T16:19:28.212Z,101088.09
2023-03-15T16:21:55.817Z,101069.81
2023-03-15T16:24:26.099Z,101076.75
2023-03-15T16:26:57.969Z,101071.41
2023-03-15T16:29:28.217Z,101074.63
2023-03-15T16:32:06.578Z,101072.31
2023-03-15T16:34:42.347Z,101061.69
2023-03-15T16:37:14.280Z,101056.03
2023-03-15T16:39:47.414Z,101059.94
2023-03-15T16:42:16.091Z,101058.06
2023-03-15T16:44:44.042Z,101054.38
2023-03-15T16:47:12.100Z,101062.56
2023-03-15T16:49:40.688Z,101057.44
2023-03-15T16:52:13.565Z,101056.31
2023-03-15T16:54:42.376Z,101049.69
2023-03-15T16:57:13.192Z,101049.81
2023-03-15T16:59:40.768Z,101050.81
2023-03-15T17:02:11.611Z,101045.84
2023-03-15T17:04:39.592Z,101040.38
2023-03-15T17:07:08.040Z,101036.91
2023-03-15T17:09:35.797Z,101043.97
2023-03-15T17:12:03.412Z,101036.06
2023-03-15T17:14:32.668Z,101025.81
2023-03-15T17:17:00.127Z,101022.34
2023-03-15T17:19:27.613Z,101036.34
2023-03-15T17:25:24.055Z,101026.72
2023-03-15T17:28:09.972Z,101018.16
2023-03-15T17:36:39.031Z,101010.69
2023-03-15T17:39:07.845Z,101008.75
2023-03-15T17:41:39.156Z,101009.44
2023-03-15T17:44:08.089Z,101006.81
2023-03-15T17:46:41.716Z,101001.38
2023-03-15T17:49:11.812Z,101002.50
2023-03-15T17:51:39.604Z,101001.00
2023-03-15T17:54:10.134Z,101002.78
2023-03-15T17:56:37.282Z,100999.63
2023-03-15T17:59:05.337Z,100997.13
2023-03-15T18:01:32.725Z,101007.97
2023-03-15T18:04:00.085Z,101004.63
2023-03-15T18:06:27.285Z,101004.81
2023-03-15T18:08:54.484Z,101003.97
2023-03-15T18:11:24.637Z,100992.31
2023-03-15T18:13:52.220Z,100991.50
2023-03-15T18:19:43.568Z,101004.19
2023-03-15T18:22:18.256Z,100998.94
2023-03-15T18:24:47.291Z,100994.69
2023-03-15T18:27:15.833Z,100998.28
2023-03-15T18:29:43.578Z,100997.59
2023-03-15T18:32:11.604Z,101003.66
2023-03-15T18:34:39.692Z,100997.59
2023-03-15T18:37:08.003Z,100999.38
2023-03-15T18:39:35.251Z,101001.88
2023-03-15T18:42:02.924Z,100997.44
2023-03-15T18:44:31.150Z,100996.63
2023-03-15T18:46:58.546Z,100994.00
2023-03-15T18:49:26.236Z,100994.81
2023-03-15T18:51:56.804Z,100992.63
2023-03-15T18:54:25.587Z,100978.66
2023-03-15T18:56:52.974Z,100978.66
2023-03-15T18:59:20.617Z,100976.16
2023-03-15T19:01:50.169Z,100975.47
2023-03-15T19:04:17.688Z,100978.09
2023-03-15T19:10:07.064Z,100973.53
2023-03-15T19:12:34.117Z,100969.25
2023-03-15T19:15:05.933Z,100964.25
2023-03-15T19:17:36.648Z,100965.09
2023-03-15T19:20:04.192Z,100951.94
2023-03-15T19:22:31.694Z,100943.53
2023-03-15T19:24:58.376Z,100946.16
2023-03-15T19:27:25.304Z,100941.19
2023-03-15T19:29:52.247Z,100930.97
2023-03-15T19:32:20.617Z,100933.72
2023-03-15T19:34:50.095Z,100927.66
2023-03-15T19:37:16.984Z,100926.81
2023-03-15T19:42:51.650Z,100924.03
2023-03-15T19:45:42.133Z,100913.66
2023-03-15T19:48:27.987Z,100909.25
2023-03-15T19:51:21.831Z,100905.50
2023-03-15T19:54:09.540Z,100905.66
2023-03-15T19:56:58.368Z,100917.97
2023-03-15T19:59:54.096Z,100924.88
2023-03-15T20:02:48.928Z,100906.63
2023-03-15T20:05:39.089Z,100906.09
2023-03-15T20:08:26.645Z,100907.59
2023-03-15T20:11:23.623Z,100910.38
2023-03-15T20:14:11.985Z,100908.59
2023-03-15T20:16:59.465Z,100902.88
2023-03-15T20:19:51.312Z,100903.72
2023-03-15T20:22:44.265Z,100897.44
2023-03-15T20:25:12.175Z,100899.41
2023-03-15T20:27:38.991Z,100891.81
2023-03-15T20:30:06.324Z,100900.53
2023-03-15T20:32:33.303Z,100891.16
2023-03-15T20:35:01.325Z,100894.44
2023-03-15T20:37:29.308Z,100888.38
2023-03-15T20:39:56.112Z,100890.19
2023-03-15T20:42:24.009Z,100890.84
2023-03-15T20:44:50.710Z,100882.81
2023-03-15T20:47:17.461Z,100882.00
2023-03-15T20:49:44.118Z,100879.22
2023-03-15T20:52:11.249Z,100887.94
2023-03-15T20:54:37.974Z,100887.09
2023-03-15T20:57:04.661Z,100882.00
2023-03-15T20:59:32.046Z,100882.00
2023-03-15T21:01:58.766Z,100881.84
2023-03-15T21:04:29.824Z,100872.00
2023-03-15T21:06:56.726Z,100863.44
2023-03-15T21:09:32.043Z,100862.63
2023-03-15T21:12:01.218Z,100859.16
2023-03-15T21:14:28.001Z,100859.47
2023-03-15T21:16:55.083Z,100853.22
2023-03-15T21:19:23.072Z,100845.63
2023-03-15T21:21:49.730Z,100842.88
2023-03-15T21:24:16.444Z,100847.81
2023-03-15T21:26:45.215Z,100835.50
2023-03-15T21:29:12.499Z,100832.75
2023-03-15T21:31:39.296Z,100833.41
2023-03-15T21:34:06.912Z,100823.19
2023-03-15T21:36:57.030Z,100824.63
2023-03-15T21:39:24.006Z,100822.44
2023-03-15T21:41:51.165Z,100817.69
2023-03-15T21:44:18.584Z,100821.16
2023-03-15T21:46:45.849Z,100816.72
2023-03-15T21:49:12.957Z,100806.72
2023-03-15T21:51:40.623Z,100814.63
2023-03-15T21:54:10.312Z,100818.91
2023-03-15T21:56:37.449Z,100811.34
2023-03-15T21:59:06.378Z,100804.69
2023-03-15T22:01:34.400Z,100813.28
2023-03-15T22:04:01.208Z,100812.31
2023-03-15T22:06:27.929Z,100813.66
2023-03-15T22:08:55.026Z,100812.81
2023-03-15T22:11:23.026Z,100802.16
2023-03-15T22:13:49.876Z,100806.44
2023-03-15T22:16:17.832Z,100786.69
2023-03-15T22:18:44.696Z,100793.44
2023-03-15T22:21:11.463Z,100786.25
2023-03-15T22:23:38.333Z,100778.38
2023-03-15T22:26:05.157Z,100779.16
2023-03-15T22:28:32.411Z,100778.50
2023-03-15T22:30:59.271Z,100772.56
2023-03-15T22:33:26.059Z,100774.69
2023-03-15T22:35:57.064Z,100776.34
2023-03-15T22:38:25.187Z,100770.53
2023-03-15T22:40:59.541Z,100768.72
2023-03-15T22:43:33.237Z,100764.31
2023-03-15T22:46:12.445Z,100759.03
2023-03-15T22:48:39.138Z,100749.38
2023-03-15T22:51:07.534Z,100748.53
2023-03-15T22:53:34.215Z,100750.34
2023-03-15T22:56:12.606Z,100748.53
2023-03-15T23:05:07.877Z,100735.03
2023-03-15T23:08:04.980Z,100727.00
2023-03-15T23:10:36.152Z,100725.19
2023-03-15T23:13:04.083Z,100730.44
2023-03-15T23:15:36.650Z,100721.59
2023-03-15T23:18:09.129Z,100723.91
2023-03-15T23:20:36.320Z,100724.75
2023-03-15T23:23:03.150Z,100710.44
2023-03-15T23:25:30.187Z,100714.22
2023-03-15T23:28:03.487Z,100705.19
2023-03-15T23:30:35.765Z,100699.94
2023-03-15T23:33:04.060Z,100699.13
2023-03-15T23:35:32.064Z,100689.28
2023-03-15T23:38:06.959Z,100685.44
2023-03-15T23:40:33.717Z,100691.41
2023-03-15T23:43:00.365Z,100684.03
2023-03-15T23:45:29.732Z,100682.72
2023-03-15T23:47:56.858Z,100677.34
2023-03-15T23:50:26.393Z,100678.16
2023-03-15T23:52:53.898Z,100678.16
2023-03-15T23:55:21.116Z,100675.53
2023-03-15T23:57:48.217Z,100667.31
